PHD weather

Harry Clever Field
New Philadelphia, Ohio, United States

Public forecast

Using degrees Fahrenheit for public forecast. Weather courtesy of forecast.io.

METAR (pilot weather report)

Retrieved 2019/03/25 13:42 UTC (11 minutes ago):

KPHD 251342Z AUTO VRB05KT 5SM -RA BR BKN010 OVC047 06/04 A3007 RMK AO2 RAB40 P0000 T00560039

TAF (pilot weather forecast)

Closest forecast is Akron Canton Regional Airport, 26.7 nm (49.5 km) N. Retrieved 2019/03/25 12:00 UTC (2 hours ago):

TAF COR KCAK 251158Z 2512/2612 04009KT P6SM SCT006 BKN045 TEMPO 2512/2516 3SM BR BKN006 FM251800 03011G19KT P6SM SCT200 FM252200 02012KT P6SM FEW250